»·PEaware :: N253AW KPSP-KSJC

N253AW :: KPSP-KSJC

FLIGHT INFORMATION

Flight Status: Arrived
Operator: Privately registered:
United States
More flights under this callsign
Pilot: Dean S. (16265)
Aircraft: CESSNA 182 SKYLANE
(C182)
More flights by this aircraft type
Origin: KPSP Palm Springs Intl
United States
Destination: KSJC Mineta San Jose Intl
United States
More flights between these airports :: More routes between these airports
Route: +AHLEX BANDS V370 PDZ V186 FIM V107 AVE V137 ROM V485 LICKE
File this flight plan on PilotEdge
Remarks:
Altitude:
(Current/Filed)
10,500ft
Speed:
(Current/Filed)
145kts
Departed: 08-Oct-17 11:05 AM
Arrived: 08-Oct-17 01:39 PM
Distance/Time
Traveled:
339nm/2:34
Distance/Time
To Go:
Arrived

Flight Plot

Page will automatically refresh every two minutes.

Flight plan parsing failed; only flown route is shown


Map Options




Map Legend


Flown Route
Filed Route
Departure Airport
Arrival Airport
Navaid (VOR, NDB)
Fix

Horizontal Profiles

Position Reports

Time Latitude Longitude Heading Altitude Ground
Speed
08-Oct-17 10:44 33.825151 -116.508833 106 480ft 0kts
08-Oct-17 10:45 33.825150 -116.508830 106 480ft 0kts
08-Oct-17 10:46 33.825149 -116.508827 106 480ft 0kts
08-Oct-17 10:47 33.825146 -116.508813 106 480ft 0kts
08-Oct-17 10:48 33.825146 -116.508812 106 480ft 0kts
08-Oct-17 10:49 33.825146 -116.508811 106 480ft 0kts
08-Oct-17 10:50 33.825145 -116.508810 106 480ft 0kts
08-Oct-17 10:50 33.825145 -116.508809 106 480ft 0kts
08-Oct-17 10:52 33.825145 -116.508808 106 480ft 0kts
08-Oct-17 10:52 33.825145 -116.508807 106 480ft 0kts
08-Oct-17 10:53 33.825144 -116.508806 106 480ft 0kts
08-Oct-17 10:54 33.825144 -116.508805 106 480ft 0kts
08-Oct-17 10:56 33.825144 -116.508804 106 480ft 0kts
08-Oct-17 10:56 33.825144 -116.508803 106 480ft 0kts
08-Oct-17 10:57 33.825143 -116.508803 106 480ft 0kts
08-Oct-17 10:58 33.825143 -116.508802 106 480ft 0kts
08-Oct-17 10:59 33.825143 -116.508801 106 480ft 0kts
08-Oct-17 11:00 33.825453 -116.507982 26 480ft 10kts
08-Oct-17 11:01 33.826789 -116.507216 26 480ft 12kts
08-Oct-17 11:02 33.830484 -116.510068 323 480ft 21kts
08-Oct-17 11:03 33.834867 -116.513907 324 480ft 14kts
08-Oct-17 11:04 33.838279 -116.516824 324 480ft 11kts
08-Oct-17 11:05 33.839414 -116.517286 48 480ft 0kts
08-Oct-17 11:06 33.839414 -116.517286 48 480ft 0kts
08-Oct-17 11:07 33.839414 -116.517286 48 480ft 0kts
08-Oct-17 11:08 33.839417 -116.517283 48 480ft 0kts
08-Oct-17 11:09 33.831794 -116.509585 140 627ft 87kts
08-Oct-17 11:10 33.814114 -116.487280 83 1559ft 102kts
08-Oct-17 11:11 33.831925 -116.472368 325 2473ft 113kts
08-Oct-17 11:12 33.855428 -116.496499 311 3511ft 111kts
08-Oct-17 11:13 33.868524 -116.527851 288 4682ft 103kts
08-Oct-17 11:14 33.874957 -116.563630 276 5718ft 113kts
08-Oct-17 11:15 33.880750 -116.600461 283 6906ft 113kts
08-Oct-17 11:16 33.884350 -116.638305 274 8077ft 114kts
08-Oct-17 11:17 33.886410 -116.676396 266 9229ft 116kts
08-Oct-17 11:18 33.882543 -116.715267 261 10215ft 123kts
08-Oct-17 11:19 33.881943 -116.757803 271 10580ft 135kts
08-Oct-17 11:20 33.882932 -116.806225 271 10593ft 148kts
08-Oct-17 11:21 33.883950 -116.856084 271 10608ft 149kts
08-Oct-17 11:22 33.884972 -116.906131 271 10617ft 150kts
08-Oct-17 11:23 33.886010 -116.957006 271 10518ft 151kts
08-Oct-17 11:24 33.887032 -117.007068 271 10518ft 149kts
08-Oct-17 11:25 33.888053 -117.057080 271 10515ft 149kts
08-Oct-17 11:26 33.889071 -117.106935 271 10510ft 149kts
08-Oct-17 11:27 33.890089 -117.156807 271 10505ft 149kts
08-Oct-17 11:28 33.891111 -117.206829 271 10501ft 149kts
08-Oct-17 11:29 33.892332 -117.256678 275 10497ft 149kts
08-Oct-17 11:30 33.898847 -117.306066 279 10497ft 149kts
08-Oct-17 11:31 33.905623 -117.355260 279 10495ft 149kts
08-Oct-17 11:32 33.912110 -117.404500 276 10491ft 149kts
08-Oct-17 11:33 33.916789 -117.454269 276 10489ft 149kts
08-Oct-17 11:34 33.921413 -117.503810 276 10489ft 149kts
08-Oct-17 11:35 33.931162 -117.552019 293 10491ft 149kts
08-Oct-17 11:36 33.947610 -117.597780 293 10493ft 149kts
08-Oct-17 11:37 33.964060 -117.643520 293 10497ft 149kts
08-Oct-17 11:38 33.980573 -117.689441 293 10499ft 149kts
08-Oct-17 11:39 33.997015 -117.735175 293 10509ft 148kts
08-Oct-17 11:40 34.013512 -117.781070 293 10520ft 148kts
08-Oct-17 11:41 34.029951 -117.826811 293 10524ft 149kts
08-Oct-17 11:42 34.046425 -117.872662 293 10522ft 149kts
08-Oct-17 11:43 34.060365 -117.919877 287 10519ft 149kts
08-Oct-17 11:44 34.072776 -117.967581 287 10519ft 149kts
08-Oct-17 11:45 34.085221 -118.015430 287 10518ft 149kts
08-Oct-17 11:46 34.097629 -118.063143 287 10517ft 149kts
08-Oct-17 11:47 34.110042 -118.110881 287 10511ft 149kts
08-Oct-17 11:48 34.122508 -118.158827 287 10505ft 149kts
08-Oct-17 11:49 34.134930 -118.206615 287 10500ft 149kts
08-Oct-17 11:50 34.147385 -118.254536 287 10497ft 149kts
08-Oct-17 11:51 34.159799 -118.302306 287 10496ft 149kts
08-Oct-17 11:52 34.172210 -118.350072 287 10497ft 149kts
08-Oct-17 11:53 34.184656 -118.397979 287 10498ft 149kts
08-Oct-17 11:54 34.197650 -118.445513 290 10498ft 149kts
08-Oct-17 11:55 34.212154 -118.492603 290 10498ft 149kts
08-Oct-17 11:56 34.226621 -118.539552 290 10498ft 149kts
08-Oct-17 11:57 34.241080 -118.586487 290 10501ft 149kts
08-Oct-17 11:58 34.255586 -118.633577 290 10504ft 149kts
08-Oct-17 11:59 34.270737 -118.680174 293 10509ft 149kts
08-Oct-17 12:00 34.287860 -118.725806 294 10513ft 149kts
08-Oct-17 12:01 34.305077 -118.771660 294 10502ft 149kts
08-Oct-17 12:02 34.322229 -118.817348 294 10506ft 149kts
08-Oct-17 12:03 34.345808 -118.858182 299 10510ft 148kts
08-Oct-17 12:04 34.369533 -118.896462 336 10513ft 147kts
08-Oct-17 12:05 34.404437 -118.922410 322 10517ft 148kts
08-Oct-17 12:06 34.437165 -118.952896 322 10523ft 148kts
08-Oct-17 12:07 34.469772 -118.983284 322 10532ft 148kts
08-Oct-17 12:08 34.502491 -119.013787 322 10540ft 148kts
08-Oct-17 12:09 34.535866 -119.042984 324 10548ft 148kts
08-Oct-17 12:10 34.569349 -119.072027 324 10551ft 148kts
08-Oct-17 12:11 34.603023 -119.101247 324 10548ft 148kts
08-Oct-17 12:12 34.636572 -119.130371 324 10544ft 148kts
08-Oct-17 12:13 34.670195 -119.159570 324 10547ft 148kts
08-Oct-17 12:14 34.703713 -119.188690 324 10548ft 148kts
08-Oct-17 12:15 34.736729 -119.218593 321 10556ft 148kts
08-Oct-17 12:16 34.769055 -119.249929 321 10558ft 148kts
08-Oct-17 12:17 34.801296 -119.281199 321 10552ft 148kts
08-Oct-17 12:18 34.833674 -119.312615 321 10546ft 148kts
08-Oct-17 12:19 34.865951 -119.343945 321 10541ft 148kts
08-Oct-17 12:20 34.898526 -119.374781 323 10536ft 148kts
08-Oct-17 12:21 34.931804 -119.404860 323 10529ft 148kts
08-Oct-17 12:22 34.964956 -119.434833 323 10525ft 148kts
08-Oct-17 12:23 34.998099 -119.464810 323 10521ft 148kts
08-Oct-17 12:24 35.031348 -119.494895 323 10518ft 148kts
08-Oct-17 12:25 35.064587 -119.524748 324 10515ft 148kts
08-Oct-17 12:26 35.098261 -119.554151 324 10514ft 148kts
08-Oct-17 12:27 35.131819 -119.583458 324 10511ft 148kts
08-Oct-17 12:28 35.165389 -119.612787 324 10509ft 148kts
08-Oct-17 12:29 35.199062 -119.642219 324 10508ft 148kts
08-Oct-17 12:30 35.232630 -119.671572 324 10506ft 148kts
08-Oct-17 12:31 35.266296 -119.701022 324 10507ft 148kts
08-Oct-17 12:32 35.300122 -119.729911 326 10507ft 148kts
08-Oct-17 12:33 35.334622 -119.757947 326 10505ft 148kts
08-Oct-17 12:34 35.369001 -119.785891 326 10507ft 148kts
08-Oct-17 12:35 35.403359 -119.813829 326 10509ft 148kts
08-Oct-17 12:36 35.437864 -119.841900 326 10507ft 148kts
08-Oct-17 12:37 35.472821 -119.869163 329 10483ft 148kts
08-Oct-17 12:38 35.508509 -119.894966 330 10483ft 148kts
08-Oct-17 12:39 35.545664 -119.916467 349 10484ft 148kts
08-Oct-17 12:40 35.583525 -119.936233 328 10488ft 157kts
08-Oct-17 12:41 35.621536 -119.964915 328 10487ft 161kts
08-Oct-17 12:42 35.656988 -119.997609 307 10489ft 161kts
08-Oct-17 12:43 35.684336 -120.041447 308 10488ft 161kts
08-Oct-17 12:44 35.712178 -120.084600 308 10488ft 161kts
08-Oct-17 12:45 35.739984 -120.127709 308 10497ft 161kts
08-Oct-17 12:46 35.767831 -120.170897 308 10497ft 161kts
08-Oct-17 12:47 35.795775 -120.214248 308 10497ft 161kts
08-Oct-17 12:49 35.823620 -120.257465 308 10497ft 161kts
08-Oct-17 12:50 35.851568 -120.300855 308 10497ft 161kts
08-Oct-17 12:51 35.880250 -120.343246 311 10497ft 161kts
08-Oct-17 12:52 35.909999 -120.384805 311 10497ft 161kts
08-Oct-17 12:53 35.939649 -120.426236 311 10497ft 161kts
08-Oct-17 12:54 35.969300 -120.467685 311 10500ft 161kts
08-Oct-17 12:55 35.999041 -120.509275 311 10500ft 161kts
08-Oct-17 12:55 36.024939 -120.542511 314 10500ft 161kts
08-Oct-17 12:57 36.061639 -120.588747 314 10501ft 161kts
08-Oct-17 12:57 36.087792 -120.621708 314 10501ft 161kts
08-Oct-17 12:59 36.124410 -120.667880 314 10499ft 161kts
08-Oct-17 13:00 36.159544 -120.701644 330 10499ft 161kts
08-Oct-17 13:00 36.192622 -120.723499 333 10499ft 161kts
08-Oct-17 13:01 36.232399 -120.748999 326 10500ft 161kts
08-Oct-17 13:03 36.274670 -120.784856 325 9638ft 155kts
08-Oct-17 13:03 36.303412 -120.810679 323 9064ft 154kts
08-Oct-17 13:04 36.337364 -120.842230 322 8430ft 151kts
08-Oct-17 13:05 36.370472 -120.873821 322 7839ft 149kts
08-Oct-17 13:06 36.403219 -120.905086 322 7288ft 148kts
08-Oct-17 13:07 36.435703 -120.936112 322 6862ft 145kts
08-Oct-17 13:08 36.468432 -120.967386 322 6481ft 149kts
08-Oct-17 13:09 36.501255 -120.998763 322 6478ft 148kts
08-Oct-17 13:10 36.533910 -121.029993 322 6478ft 148kts
08-Oct-17 13:11 36.566584 -121.061254 322 6479ft 148kts
08-Oct-17 13:12 36.599357 -121.092624 322 6485ft 147kts
08-Oct-17 13:13 36.631884 -121.123770 322 6486ft 148kts
08-Oct-17 13:14 36.664561 -121.155074 322 6486ft 148kts
08-Oct-17 13:15 36.697014 -121.186642 320 6476ft 148kts
08-Oct-17 13:16 36.729597 -121.218034 322 6466ft 148kts
08-Oct-17 13:17 36.762265 -121.249474 320 6466ft 148kts
08-Oct-17 13:18 36.793567 -121.282721 319 6467ft 148kts
08-Oct-17 13:19 36.824902 -121.316184 319 6468ft 148kts
08-Oct-17 13:20 36.856133 -121.349550 319 6469ft 148kts
08-Oct-17 13:21 36.887374 -121.382941 319 6470ft 148kts
08-Oct-17 13:22 36.918719 -121.416457 319 6470ft 148kts
08-Oct-17 13:23 36.949960 -121.449875 319 6470ft 148kts
08-Oct-17 13:24 36.981299 -121.483411 319 6471ft 148kts
08-Oct-17 13:25 37.012232 -121.516541 319 6052ft 146kts
08-Oct-17 13:26 37.042507 -121.550660 314 4910ft 149kts
08-Oct-17 13:27 37.071059 -121.587108 314 3645ft 144kts
08-Oct-17 13:28 37.097261 -121.620744 311 3004ft 129kts
08-Oct-17 13:29 37.117873 -121.654376 309 2770ft 111kts
08-Oct-17 13:30 37.135980 -121.681815 312 2751ft 101kts
08-Oct-17 13:31 37.153852 -121.708375 315 2614ft 99kts
08-Oct-17 13:32 37.172563 -121.728901 328 2862ft 81kts
08-Oct-17 13:33 37.191497 -121.744924 326 3166ft 82kts
08-Oct-17 13:34 37.209090 -121.762181 318 3506ft 80kts
08-Oct-17 13:35 37.226056 -121.780902 319 3750ft 81kts
08-Oct-17 13:36 37.244321 -121.800294 320 3452ft 92kts
08-Oct-17 13:37 37.264365 -121.821319 318 2420ft 92kts
08-Oct-17 13:38 37.281455 -121.840915 317 1782ft 77kts
08-Oct-17 13:39 37.297055 -121.858340 319 1555ft 76kts
08-Oct-17 13:40 37.313554 -121.876029 319 1282ft 78kts
08-Oct-17 13:41 37.330043 -121.894114 319 895ft 78kts
08-Oct-17 13:42 37.346571 -121.912196 318 353ft 80kts
08-Oct-17 13:43 37.359482 -121.926363 318 65ft 19kts
08-Oct-17 13:44 37.362099 -121.931831 229 65ft 16kts
08-Oct-17 13:45 37.359015 -121.931134 213 65ft 6kts
08-Oct-17 13:46 37.358796 -121.931402 225 65ft 0kts
08-Oct-17 13:47 37.358796 -121.931402 225 65ft 0kts
08-Oct-17 13:48 37.358796 -121.931402 225 65ft 0kts
08-Oct-17 13:49 37.358796 -121.931402 225 65ft 0kts
08-Oct-17 13:50 37.358796 -121.931402 225 65ft 0kts
08-Oct-17 13:51 37.358796 -121.931402 225 65ft 0kts
08-Oct-17 13:52 37.358796 -121.931402 225 65ft 0kts

Navigation Log

Ident Type
Flight plan parsing failed, navigation log unavailable